Time,TemperatureF,DewpointF,PressureIn,WindDirection,WindDirectionDegrees,WindSpeedMPH,WindSpeedGustMPH,Humidity,HourlyPrecipIn,Conditions,Clouds,dailyrainin,SolarRadiationWatts/m^2,SoftwareType,DateUTC
2013-02-25 00:00:00,21.3,15.5,29.90,North,-999,2.0,3.0,78,0.00,,,0.00,0.00,VWS V14.01,2013-02-25 07:00:00,
2013-02-25 00:04:00,21.1,15.3,29.91,North,-999,0.0,5.0,78,0.00,,,0.00,0.00,VWS V14.01,2013-02-25 07:04:00,
2013-02-25 00:10:00,20.9,15.1,29.92,North,-999,0.0,3.0,78,0.00,,,0.00,0.00,VWS V14.01,2013-02-25 07:10:00,
2013-02-25 00:14:00,20.7,15.2,29.91,North,-999,3.0,4.0,79,0.00,,,0.00,0.00,VWS V14.01,2013-02-25 07:14:00,
2013-02-25 00:19:00,20.5,15.0,29.91,North,-999,4.0,4.0,79,0.00,,,0.00,0.00,VWS V14.01,2013-02-25 07:19:00,
2013-02-25 00:24:00,20.3,14.8,29.91,North,-999,1.0,11.0,79,0.00,,,0.00,0.00,VWS V14.01,2013-02-25 07:24:00,
2013-02-25 00:29:00,20.2,14.7,29.91,North,-999,0.0,5.0,79,0.00,,,0.00,0.00,VWS V14.01,2013-02-25 07:29:00,
2013-02-25 00:34:00,20.2,14.7,29.91,North,-999,0.0,5.0,79,0.00,,,0.00,0.00,VWS V14.01,2013-02-25 07:34:00,
2013-02-25 00:39:00,20.1,14.6,29.91,North,-999,0.0,0.0,79,0.00,,,0.00,0.00,VWS V14.01,2013-02-25 07:39:00,
2013-02-25 00:44:00,19.8,14.4,29.91,North,-999,0.0,0.0,79,0.00,,,0.00,0.00,VWS V14.01,2013-02-25 07:44:00,
2013-02-25 00:49:00,19.8,14.6,29.91,North,-999,0.0,0.0,80,0.00,,,0.00,0.00,VWS V14.01,2013-02-25 07:49:00,
2013-02-25 00:54:00,19.7,14.5,29.91,North,-999,0.0,0.0,80,0.00,,,0.00,0.00,VWS V14.01,2013-02-25 07:54:00,
2013-02-25 00:59:00,19.6,14.4,29.91,North,-999,0.0,0.0,80,0.00,,,0.00,0.00,VWS V14.01,2013-02-25 07:59:00,
2013-02-25 01:04:00,19.6,14.4,29.92,North,-999,0.0,5.0,80,0.00,,,0.00,0.00,VWS V14.01,2013-02-25 08:04:00,
2013-02-25 01:09:00,19.4,14.2,29.91,North,-999,0.0,0.0,80,0.00,,,0.00,0.00,VWS V14.01,2013-02-25 08:09:00,
2013-02-25 01:14:00,19.3,14.1,29.91,North,-999,0.0,0.0,80,0.00,,,0.00,0.00,VWS V14.01,2013-02-25 08:14:00,
2013-02-25 01:19:00,19.2,14.1,29.91,North,-999,0.0,0.0,80,0.00,,,0.00,0.00,VWS V14.01,2013-02-25 08:19:00,
2013-02-25 01:24:00,19.1,14.0,29.90,North,-999,0.0,0.0,80,0.00,,,0.00,0.00,VWS V14.01,2013-02-25 08:24:00,
2013-02-25 01:29:00,19.0,13.9,29.90,North,-999,0.0,0.0,80,0.00,,,0.00,0.00,VWS V14.01,2013-02-25 08:29:00,
2013-02-25 01:34:00,18.8,13.7,29.91,North,-999,0.0,0.0,80,0.00,,,0.00,0.00,VWS V14.01,2013-02-25 08:34:00,
2013-02-25 01:39:00,18.5,13.6,29.91,North,-999,0.0,0.0,81,0.00,,,0.00,0.00,VWS V14.01,2013-02-25 08:39:00,
2013-02-25 01:44:00,18.6,13.8,29.91,North,-999,0.0,0.0,81,0.00,,,0.00,0.00,VWS V14.01,2013-02-25 08:44:00,
2013-02-25 01:49:00,18.5,13.6,29.91,North,-999,0.0,0.0,81,0.00,,,0.00,0.00,VWS V14.01,2013-02-25 08:49:00,
2013-02-25 01:54:00,18.2,13.1,29.91,North,-999,0.0,0.0,80,0.00,,,0.00,0.00,VWS V14.01,2013-02-25 08:54:00,
2013-02-25 01:59:00,18.0,13.2,29.91,North,-999,0.0,0.0,81,0.00,,,0.00,0.00,VWS V14.01,2013-02-25 08:59:00,
2013-02-25 02:04:00,17.8,13.0,29.90,North,-999,0.0,0.0,81,0.00,,,0.00,0.00,VWS V14.01,2013-02-25 09:04:00,
2013-02-25 02:09:00,17.8,13.2,29.90,North,-999,0.0,0.0,82,0.00,,,0.00,0.00,VWS V14.01,2013-02-25 09:09:00,
2013-02-25 02:14:00,17.9,13.4,29.90,North,-999,0.0,0.0,82,0.00,,,0.00,0.00,VWS V14.01,2013-02-25 09:14:00,
2013-02-25 02:19:00,17.9,13.6,29.91,North,-999,0.0,0.0,83,0.00,,,0.00,0.00,VWS V14.01,2013-02-25 09:19:00,
2013-02-25 02:24:00,17.0,11.1,29.91,North,-999,0.0,5.0,77,0.00,,,0.00,0.00,VWS V14.01,2013-02-25 09:24:00,
2013-02-25 02:29:00,16.1,11.0,29.90,North,-999,0.0,0.0,80,0.00,,,0.00,0.00,VWS V14.01,2013-02-25 09:29:00,
2013-02-25 02:34:00,16.0,11.2,29.90,North,-999,0.0,0.0,81,0.00,,,0.00,0.00,VWS V14.01,2013-02-25 09:34:00,
2013-02-25 02:39:00,16.1,11.6,29.90,North,-999,0.0,0.0,82,0.00,,,0.00,0.00,VWS V14.01,2013-02-25 09:39:00,
2013-02-25 02:44:00,14.8,9.2,29.90,North,-999,0.0,3.0,78,0.00,,,0.00,0.00,VWS V14.01,2013-02-25 09:44:00,
2013-02-25 02:49:00,15.2,11.2,29.90,North,-999,0.0,0.0,84,0.00,,,0.00,0.00,VWS V14.01,2013-02-25 09:49:00,
2013-02-25 02:54:00,15.9,11.9,29.90,North,-999,0.0,4.0,84,0.00,,,0.00,0.00,VWS V14.01,2013-02-25 09:54:00,
2013-02-25 02:59:00,16.9,13.2,29.89,North,-999,4.0,6.0,85,0.00,,,0.00,0.00,VWS V14.01,2013-02-25 09:59:00,
2013-02-25 03:04:00,17.9,13.9,29.88,North,-999,0.0,6.0,84,0.00,,,0.00,0.00,VWS V14.01,2013-02-25 10:04:00,
2013-02-25 03:09:00,17.9,13.1,29.89,North,-999,5.0,6.0,81,0.00,,,0.00,0.00,VWS V14.01,2013-02-25 10:09:00,
2013-02-25 03:14:00,17.1,12.0,29.88,North,-999,0.0,6.0,80,0.00,,,0.00,0.00,VWS V14.01,2013-02-25 10:14:00,
2013-02-25 03:19:00,16.6,12.1,29.88,North,-999,0.0,0.0,82,0.00,,,0.00,0.00,VWS V14.01,2013-02-25 10:19:00,
2013-02-25 03:24:00,16.3,11.8,29.88,North,-999,0.0,0.0,82,0.00,,,0.00,0.00,VWS V14.01,2013-02-25 10:24:00,
2013-02-25 03:29:00,16.3,11.8,29.88,North,-999,0.0,0.0,82,0.00,,,0.00,0.00,VWS V14.01,2013-02-25 10:29:00,
2013-02-25 03:34:00,15.8,11.3,29.88,North,-999,0.0,0.0,82,0.00,,,0.00,0.00,VWS V14.01,2013-02-25 10:34:00,
2013-02-25 03:39:00,15.0,10.2,29.88,North,-999,0.0,0.0,81,0.00,,,0.00,0.00,VWS V14.01,2013-02-25 10:39:00,
2013-02-25 03:44:00,14.9,10.4,29.88,North,-999,0.0,0.0,82,0.00,,,0.00,0.00,VWS V14.01,2013-02-25 10:44:00,
2013-02-25 03:49:00,15.3,11.3,29.88,North,-999,0.0,0.0,84,0.00,,,0.00,0.00,VWS V14.01,2013-02-25 10:49:00,
2013-02-25 03:54:00,15.7,11.7,29.88,North,-999,0.0,3.0,84,0.00,,,0.00,0.00,VWS V14.01,2013-02-25 10:54:00,
2013-02-25 03:59:00,15.9,11.9,29.88,North,-999,0.0,0.0,84,0.00,,,0.00,0.00,VWS V14.01,2013-02-25 10:59:00,
2013-02-25 04:04:00,16.1,12.1,29.88,North,-999,0.0,0.0,84,0.00,,,0.00,0.00,VWS V14.01,2013-02-25 11:04:00,
2013-02-25 04:09:00,16.3,12.3,29.87,North,-999,0.0,0.0,84,0.00,,,0.00,0.00,VWS V14.01,2013-02-25 11:09:00,
2013-02-25 04:14:00,16.4,12.1,29.87,North,-999,0.0,2.0,83,0.00,,,0.00,0.00,VWS V14.01,2013-02-25 11:14:00,
2013-02-25 04:19:00,16.5,12.2,29.88,North,-999,0.0,0.0,83,0.00,,,0.00,0.00,VWS V14.01,2013-02-25 11:19:00,
2013-02-25 04:24:00,16.5,12.0,29.88,North,-999,0.0,0.0,82,0.00,,,0.00,0.00,VWS V14.01,2013-02-25 11:24:00,
2013-02-25 04:29:00,16.4,11.9,29.88,North,-999,3.0,4.0,82,0.00,,,0.00,0.00,VWS V14.01,2013-02-25 11:29:00,
2013-02-25 04:34:00,16.6,12.1,29.87,North,-999,0.0,4.0,82,0.00,,,0.00,0.00,VWS V14.01,2013-02-25 11:34:00,
2013-02-25 04:39:00,16.9,12.4,29.87,North,-999,3.0,4.0,82,0.00,,,0.00,0.00,VWS V14.01,2013-02-25 11:39:00,
2013-02-25 04:44:00,17.1,12.6,29.87,North,-999,3.0,5.0,82,0.00,,,0.00,0.00,VWS V14.01,2013-02-25 11:44:00,
2013-02-25 04:49:00,17.1,12.3,29.87,North,-999,10.0,10.0,81,0.00,,,0.00,0.00,VWS V14.01,2013-02-25 11:49:00,
2013-02-25 04:54:00,17.0,12.2,29.87,North,-999,1.0,11.0,81,0.00,,,0.00,0.00,VWS V14.01,2013-02-25 11:54:00,
2013-02-25 04:59:00,17.0,12.5,29.87,North,-999,3.0,4.0,82,0.00,,,0.00,0.00,VWS V14.01,2013-02-25 11:59:00,
2013-02-25 05:04:00,17.1,12.3,29.87,North,-999,0.0,4.0,81,0.00,,,0.00,0.00,VWS V14.01,2013-02-25 12:04:00,
2013-02-25 05:09:00,16.8,11.7,29.87,North,-999,0.0,0.0,80,0.00,,,0.00,0.00,VWS V14.01,2013-02-25 12:09:00,
2013-02-25 05:14:00,16.5,11.4,29.87,North,-999,0.0,0.0,80,0.00,,,0.00,0.00,VWS V14.01,2013-02-25 12:14:00,
2013-02-25 05:19:00,16.3,11.5,29.87,North,-999,0.0,0.0,81,0.00,,,0.00,0.00,VWS V14.01,2013-02-25 12:19:00,
2013-02-25 05:24:00,16.2,11.4,29.87,North,-999,0.0,0.0,81,0.00,,,0.00,0.00,VWS V14.01,2013-02-25 12:24:00,
2013-02-25 05:29:00,16.0,11.5,29.87,North,-999,9.0,9.0,82,0.00,,,0.00,0.00,VWS V14.01,2013-02-25 12:29:00,
2013-02-25 05:34:00,15.8,11.3,29.87,North,-999,0.0,10.0,82,0.00,,,0.00,0.00,VWS V14.01,2013-02-25 12:34:00,
2013-02-25 05:39:00,15.7,11.2,29.88,North,-999,0.0,0.0,82,0.00,,,0.00,0.00,VWS V14.01,2013-02-25 12:39:00,
2013-02-25 05:44:00,15.6,11.1,29.87,North,-999,0.0,0.0,82,0.00,,,0.00,0.00,VWS V14.01,2013-02-25 12:44:00,
2013-02-25 05:49:00,15.7,11.5,29.87,North,-999,0.0,0.0,83,0.00,,,0.00,0.00,VWS V14.01,2013-02-25 12:49:00,
2013-02-25 05:54:00,15.7,11.2,29.87,North,-999,2.0,2.0,82,0.00,,,0.00,0.00,VWS V14.01,2013-02-25 12:54:00,
2013-02-25 05:59:00,15.2,10.4,29.87,North,-999,0.0,0.0,81,0.00,,,0.00,0.00,VWS V14.01,2013-02-25 12:59:00,
2013-02-25 06:04:00,15.4,10.9,29.88,North,-999,5.0,7.0,82,0.00,,,0.00,0.00,VWS V14.01,2013-02-25 13:04:00,
2013-02-25 06:09:00,15.5,11.0,29.88,North,-999,0.0,0.0,82,0.00,,,0.00,0.00,VWS V14.01,2013-02-25 13:09:00,
2013-02-25 06:14:00,15.8,11.6,29.87,North,-999,3.0,5.0,83,0.00,,,0.00,0.00,VWS V14.01,2013-02-25 13:14:00,
2013-02-25 06:19:00,15.9,11.4,29.87,North,-999,4.0,8.0,82,0.00,,,0.00,0.00,VWS V14.01,2013-02-25 13:19:00,
2013-02-25 06:24:00,16.3,11.8,29.87,North,-999,3.0,9.0,82,0.00,,,0.00,0.00,VWS V14.01,2013-02-25 13:24:00,
2013-02-25 06:29:00,16.3,11.5,29.87,North,-999,0.0,2.0,81,0.00,,,0.00,0.00,VWS V14.01,2013-02-25 13:29:00,
2013-02-25 06:34:00,16.8,12.3,29.87,North,-999,3.0,8.0,82,0.00,,,0.00,0.00,VWS V14.01,2013-02-25 13:34:00,
2013-02-25 06:39:00,16.4,11.6,29.87,North,-999,6.0,6.0,81,0.00,,,0.00,0.00,VWS V14.01,2013-02-25 13:39:00,
2013-02-25 06:44:00,16.4,11.6,29.87,North,-999,0.0,7.0,81,0.00,,,0.00,0.00,VWS V14.01,2013-02-25 13:44:00,
2013-02-25 06:49:00,16.7,12.2,29.87,North,-999,4.0,6.0,82,0.00,,,0.00,0.00,VWS V14.01,2013-02-25 13:49:00,
2013-02-25 06:54:00,17.0,12.5,29.87,North,-999,2.0,6.0,82,0.00,,,0.00,5.00,VWS V14.01,2013-02-25 13:54:00,
2013-02-25 06:59:00,17.2,12.4,29.87,North,-999,0.0,0.0,81,0.00,,,0.00,5.00,VWS V14.01,2013-02-25 13:59:00,
2013-02-25 07:04:00,17.2,12.4,29.87,North,-999,1.0,1.0,81,0.00,,,0.00,11.00,VWS V14.01,2013-02-25 14:04:00,
2013-02-25 07:09:00,17.3,12.5,29.87,North,-999,0.0,0.0,81,0.00,,,0.00,14.00,VWS V14.01,2013-02-25 14:09:00,
2013-02-25 07:14:00,17.4,12.3,29.87,North,-999,5.0,5.0,80,0.00,,,0.00,16.00,VWS V14.01,2013-02-25 14:14:00,
2013-02-25 07:19:00,16.7,11.6,29.87,North,-999,0.0,4.0,80,0.00,,,0.00,19.00,VWS V14.01,2013-02-25 14:19:00,
2013-02-25 07:24:00,16.4,11.3,29.87,North,-999,3.0,4.0,80,0.00,,,0.00,28.00,VWS V14.01,2013-02-25 14:24:00,
2013-02-25 07:29:00,16.3,11.5,29.87,North,-999,4.0,4.0,81,0.00,,,0.00,40.00,VWS V14.01,2013-02-25 14:29:00,
2013-02-25 07:34:00,16.4,11.3,29.87,North,-999,4.0,7.0,80,0.00,,,0.00,47.00,VWS V14.01,2013-02-25 14:34:00,
2013-02-25 07:39:00,16.7,11.9,29.87,North,-999,4.0,5.0,81,0.00,,,0.00,69.00,VWS V14.01,2013-02-25 14:39:00,
2013-02-25 07:44:00,17.3,12.2,29.86,North,-999,3.0,7.0,80,0.00,,,0.00,81.00,VWS V14.01,2013-02-25 14:44:00,
2013-02-25 07:49:00,17.6,12.5,29.87,North,-999,5.0,6.0,80,0.00,,,0.00,95.00,VWS V14.01,2013-02-25 14:49:00,
2013-02-25 07:54:00,18.0,12.9,29.87,North,-999,3.0,6.0,80,0.00,,,0.00,111.00,VWS V14.01,2013-02-25 14:54:00,
2013-02-25 07:59:00,18.4,13.0,29.87,North,-999,3.0,4.0,79,0.00,,,0.00,120.00,VWS V14.01,2013-02-25 14:59:00,
2013-02-25 08:04:00,18.8,13.4,29.86,North,-999,4.0,9.0,79,0.00,,,0.00,120.00,VWS V14.01,2013-02-25 15:04:00,
2013-02-25 08:09:00,19.4,13.7,29.86,North,-999,3.0,6.0,78,0.00,,,0.00,139.00,VWS V14.01,2013-02-25 15:09:00,
2013-02-25 08:14:00,19.7,13.7,29.86,North,-999,5.0,6.0,77,0.00,,,0.00,151.00,VWS V14.01,2013-02-25 15:14:00,
2013-02-25 08:19:00,20.1,14.1,29.85,North,-999,3.0,4.0,77,0.00,,,0.00,163.00,VWS V14.01,2013-02-25 15:19:00,
2013-02-25 08:24:00,20.3,14.0,29.86,North,-999,0.0,8.0,76,0.00,,,0.00,190.00,VWS V14.01,2013-02-25 15:24:00,
2013-02-25 08:29:00,20.7,14.4,29.85,North,-999,3.0,5.0,76,0.00,,,0.00,213.00,VWS V14.01,2013-02-25 15:29:00,
2013-02-25 08:34:00,21.2,14.8,29.85,North,-999,6.0,7.0,76,0.00,,,0.00,230.00,VWS V14.01,2013-02-25 15:34:00,
2013-02-25 08:39:00,21.3,14.6,29.86,North,-999,0.0,0.0,75,0.00,,,0.00,253.00,VWS V14.01,2013-02-25 15:39:00,
2013-02-25 08:44:00,21.5,14.5,29.85,North,-999,4.0,7.0,74,0.00,,,0.00,265.00,VWS V14.01,2013-02-25 15:44:00,
2013-02-25 08:49:00,21.7,14.7,29.85,North,-999,0.0,2.0,74,0.00,,,0.00,278.00,VWS V14.01,2013-02-25 15:49:00,
2013-02-25 08:54:00,22.1,15.1,29.85,North,-999,3.0,5.0,74,0.00,,,0.00,294.00,VWS V14.01,2013-02-25 15:54:00,
2013-02-25 08:59:00,22.6,15.3,29.84,North,-999,3.0,6.0,73,0.00,,,0.00,315.00,VWS V14.01,2013-02-25 15:59:00,
2013-02-25 09:04:00,22.9,15.6,29.84,North,-999,2.0,7.0,73,0.00,,,0.00,308.00,VWS V14.01,2013-02-25 16:04:00,
2013-02-25 09:09:00,23.1,15.4,29.84,North,-999,3.0,4.0,72,0.00,,,0.00,315.00,VWS V14.01,2013-02-25 16:09:00,
2013-02-25 09:14:00,23.2,15.5,29.84,North,-999,4.0,6.0,72,0.00,,,0.00,292.00,VWS V14.01,2013-02-25 16:14:00,
2013-02-25 09:19:00,23.4,15.7,29.84,North,-999,5.0,5.0,72,0.00,,,0.00,338.00,VWS V14.01,2013-02-25 16:19:00,
2013-02-25 09:24:00,23.7,15.7,29.83,North,-999,5.0,9.0,71,0.00,,,0.00,345.00,VWS V14.01,2013-02-25 16:24:00,
2013-02-25 09:29:00,24.1,15.8,29.84,North,-999,3.0,4.0,70,0.00,,,0.00,357.00,VWS V14.01,2013-02-25 16:29:00,
2013-02-25 09:34:00,24.6,15.9,29.83,North,-999,3.0,6.0,69,0.00,,,0.00,366.00,VWS V14.01,2013-02-25 16:34:00,
2013-02-25 09:39:00,25.1,16.4,29.83,North,-999,0.0,6.0,69,0.00,,,0.00,406.00,VWS V14.01,2013-02-25 16:39:00,
2013-02-25 09:44:00,25.6,15.8,29.83,North,-999,3.0,7.0,66,0.00,,,0.00,413.00,VWS V14.01,2013-02-25 16:44:00,
2013-02-25 09:49:00,26.0,15.5,29.82,North,-999,5.0,7.0,64,0.00,,,0.00,406.00,VWS V14.01,2013-02-25 16:49:00,
2013-02-25 09:54:00,26.3,15.8,29.82,North,-999,3.0,12.0,64,0.00,,,0.00,413.00,VWS V14.01,2013-02-25 16:54:00,
2013-02-25 09:59:00,26.3,16.1,29.82,North,-999,6.0,9.0,65,0.00,,,0.00,418.00,VWS V14.01,2013-02-25 16:59:00,
2013-02-25 10:04:00,26.4,16.6,29.82,North,-999,4.0,9.0,66,0.00,,,0.00,427.00,VWS V14.01,2013-02-25 17:04:00,
2013-02-25 10:08:00,26.8,15.9,29.82,North,-999,8.0,8.0,63,0.00,,,0.00,455.00,VWS V14.01,2013-02-25 17:08:00,
2013-02-25 10:13:00,27.1,15.8,29.82,North,-999,4.0,11.0,62,0.00,,,0.00,452.00,VWS V14.01,2013-02-25 17:13:00,
2013-02-25 10:18:00,27.5,16.2,29.82,North,-999,1.0,4.0,62,0.00,,,0.00,455.00,VWS V14.01,2013-02-25 17:18:00,
2013-02-25 10:23:00,28.0,16.7,29.82,North,-999,4.0,9.0,62,0.00,,,0.00,452.00,VWS V14.01,2013-02-25 17:23:00,
2013-02-25 10:28:00,28.3,17.0,29.81,North,-999,5.0,5.0,62,0.00,,,0.00,508.00,VWS V14.01,2013-02-25 17:28:00,
2013-02-25 10:33:00,28.6,16.9,29.81,North,-999,7.0,10.0,61,0.00,,,0.00,499.00,VWS V14.01,2013-02-25 17:33:00,
2013-02-25 10:38:00,28.9,17.5,29.81,North,-999,5.0,7.0,62,0.00,,,0.00,504.00,VWS V14.01,2013-02-25 17:38:00,
2013-02-25 10:43:00,29.4,17.6,29.80,North,-999,10.0,11.0,61,0.00,,,0.00,454.00,VWS V14.01,2013-02-25 17:43:00,
2013-02-25 10:48:00,29.6,17.8,29.80,North,-999,4.0,4.0,61,0.00,,,0.00,508.00,VWS V14.01,2013-02-25 17:48:00,
2013-02-25 10:53:00,29.9,17.7,29.80,North,-999,13.0,13.0,60,0.00,,,0.00,568.00,VWS V14.01,2013-02-25 17:53:00,
2013-02-25 10:58:00,29.9,17.3,29.80,North,-999,9.0,13.0,59,0.00,,,0.00,520.00,VWS V14.01,2013-02-25 17:58:00,
2013-02-25 11:03:00,30.4,17.8,29.80,North,-999,10.0,14.0,59,0.00,,,0.00,540.00,VWS V14.01,2013-02-25 18:03:00,
2013-02-25 11:08:00,30.3,17.3,29.79,North,-999,9.0,15.0,58,0.00,,,0.00,582.00,VWS V14.01,2013-02-25 18:08:00,
2013-02-25 11:13:00,30.3,17.7,29.79,North,-999,7.0,16.0,59,0.00,,,0.00,615.00,VWS V14.01,2013-02-25 18:13:00,
2013-02-25 11:18:00,31.2,18.2,29.79,North,-999,10.0,10.0,58,0.00,,,0.00,610.00,VWS V14.01,2013-02-25 18:18:00,
2013-02-25 11:23:00,31.7,18.2,29.79,North,-999,11.0,15.0,57,0.00,,,0.00,601.00,VWS V14.01,2013-02-25 18:23:00,
2013-02-25 11:28:00,32.5,18.1,29.79,North,-999,9.0,13.0,55,0.00,,,0.00,584.00,VWS V14.01,2013-02-25 18:28:00,
2013-02-25 11:33:00,32.8,18.4,29.79,North,-999,9.0,14.0,55,0.00,,,0.00,603.00,VWS V14.01,2013-02-25 18:33:00,
2013-02-25 11:38:00,33.4,19.0,29.78,North,-999,12.0,12.0,55,0.00,,,0.00,621.00,VWS V14.01,2013-02-25 18:38:00,
2013-02-25 11:43:00,33.2,18.8,29.78,North,-999,7.0,16.0,55,0.00,,,0.00,628.00,VWS V14.01,2013-02-25 18:43:00,
2013-02-25 11:48:00,33.5,19.1,29.77,North,-999,8.0,10.0,55,0.00,,,0.00,592.00,VWS V14.01,2013-02-25 18:48:00,
2013-02-25 11:53:00,33.7,19.3,29.77,North,-999,9.0,13.0,55,0.00,,,0.00,561.00,VWS V14.01,2013-02-25 18:53:00,
2013-02-25 11:58:00,33.9,19.5,29.77,North,-999,6.0,8.0,55,0.00,,,0.00,570.00,VWS V14.01,2013-02-25 18:58:00,
2013-02-25 12:03:00,34.0,19.5,29.77,North,-999,6.0,13.0,55,0.00,,,0.00,527.00,VWS V14.01,2013-02-25 19:03:00,
2013-02-25 12:08:00,33.7,19.7,29.77,North,-999,6.0,6.0,56,0.00,,,0.00,566.00,VWS V14.01,2013-02-25 19:08:00,
2013-02-25 12:13:00,33.4,19.4,29.77,North,-999,6.0,14.0,56,0.00,,,0.00,571.00,VWS V14.01,2013-02-25 19:13:00,
2013-02-25 12:18:00,33.2,19.6,29.77,North,-999,9.0,9.0,57,0.00,,,0.00,536.00,VWS V14.01,2013-02-25 19:18:00,
2013-02-25 12:23:00,33.3,20.1,29.77,North,-999,4.0,15.0,58,0.00,,,0.00,515.00,VWS V14.01,2013-02-25 19:23:00,
2013-02-25 12:28:00,33.6,20.0,29.76,North,-999,10.0,12.0,57,0.00,,,0.00,610.00,VWS V14.01,2013-02-25 19:28:00,
2013-02-25 12:33:00,33.7,19.7,29.76,North,-999,14.0,15.0,56,0.00,,,0.00,624.00,VWS V14.01,2013-02-25 19:33:00,
2013-02-25 12:38:00,34.0,20.0,29.76,North,-999,6.0,6.0,56,0.00,,,0.00,652.00,VWS V14.01,2013-02-25 19:38:00,
2013-02-25 12:43:00,34.8,19.9,29.76,North,-999,6.0,15.0,54,0.00,,,0.00,589.00,VWS V14.01,2013-02-25 19:43:00,
2013-02-25 12:48:00,34.8,19.9,29.76,North,-999,5.0,8.0,54,0.00,,,0.00,612.00,VWS V14.01,2013-02-25 19:48:00,
2013-02-25 12:53:00,34.9,19.1,29.76,North,-999,14.0,16.0,52,0.00,,,0.00,628.00,VWS V14.01,2013-02-25 19:53:00,
2013-02-25 12:58:00,34.8,19.0,29.75,North,-999,8.0,12.0,52,0.00,,,0.00,640.00,VWS V14.01,2013-02-25 19:58:00,
2013-02-25 13:03:00,35.2,18.9,29.75,North,-999,12.0,14.0,51,0.00,,,0.00,649.00,VWS V14.01,2013-02-25 20:03:00,
2013-02-25 13:08:00,35.5,19.2,29.75,North,-999,9.0,13.0,51,0.00,,,0.00,499.00,VWS V14.01,2013-02-25 20:08:00,
2013-02-25 13:13:00,35.9,18.6,29.74,North,-999,9.0,17.0,49,0.00,,,0.00,606.00,VWS V14.01,2013-02-25 20:13:00,
2013-02-25 13:18:00,36.6,18.8,29.74,North,-999,13.0,15.0,48,0.00,,,0.00,529.00,VWS V14.01,2013-02-25 20:18:00,
2013-02-25 13:23:00,36.7,17.9,29.74,North,-999,12.0,17.0,46,0.00,,,0.00,626.00,VWS V14.01,2013-02-25 20:23:00,
2013-02-25 13:28:00,37.2,17.8,29.74,North,-999,17.0,19.0,45,0.00,,,0.00,575.00,VWS V14.01,2013-02-25 20:28:00,
2013-02-25 13:33:00,36.7,18.9,29.74,North,-999,11.0,19.0,48,0.00,,,0.00,587.00,VWS V14.01,2013-02-25 20:33:00,
2013-02-25 13:38:00,36.6,18.8,29.73,North,-999,17.0,17.0,48,0.00,,,0.00,552.00,VWS V14.01,2013-02-25 20:38:00,
2013-02-25 13:43:00,36.6,18.3,29.74,North,-999,3.0,19.0,47,0.00,,,0.00,529.00,VWS V14.01,2013-02-25 20:43:00,
2013-02-25 13:48:00,36.6,18.3,29.74,North,-999,13.0,13.0,47,0.00,,,0.00,394.00,VWS V14.01,2013-02-25 20:48:00,
2013-02-25 13:53:00,36.3,18.0,29.74,North,-999,15.0,18.0,47,0.00,,,0.00,492.00,VWS V14.01,2013-02-25 20:53:00,
2013-02-25 13:58:00,36.3,18.5,29.73,North,-999,16.0,18.0,48,0.00,,,0.00,510.00,VWS V14.01,2013-02-25 20:58:00,
2013-02-25 14:03:00,36.3,19.0,29.73,North,-999,9.0,16.0,49,0.00,,,0.00,373.00,VWS V14.01,2013-02-25 21:03:00,
2013-02-25 14:08:00,36.0,19.2,29.73,North,-999,7.0,16.0,50,0.00,,,0.00,306.00,VWS V14.01,2013-02-25 21:08:00,
2013-02-25 14:13:00,36.0,19.2,29.73,North,-999,7.0,15.0,50,0.00,,,0.00,355.00,VWS V14.01,2013-02-25 21:13:00,
2013-02-25 14:18:00,36.0,19.2,29.73,North,-999,10.0,15.0,50,0.00,,,0.00,315.00,VWS V14.01,2013-02-25 21:18:00,
2013-02-25 14:23:00,36.0,18.7,29.73,North,-999,3.0,12.0,49,0.00,,,0.00,297.00,VWS V14.01,2013-02-25 21:23:00,
2013-02-25 14:28:00,35.9,19.1,29.73,North,-999,13.0,16.0,50,0.00,,,0.00,332.00,VWS V14.01,2013-02-25 21:28:00,
2013-02-25 14:33:00,35.9,19.5,29.73,North,-999,12.0,16.0,51,0.00,,,0.00,315.00,VWS V14.01,2013-02-25 21:33:00,
2013-02-25 14:38:00,36.0,19.6,29.73,North,-999,15.0,19.0,51,0.00,,,0.00,364.00,VWS V14.01,2013-02-25 21:38:00,
2013-02-25 14:43:00,36.4,19.5,29.73,North,-999,5.0,16.0,50,0.00,,,0.00,508.00,VWS V14.01,2013-02-25 21:43:00,
2013-02-25 14:48:00,36.7,18.9,29.73,North,-999,4.0,17.0,48,0.00,,,0.00,503.00,VWS V14.01,2013-02-25 21:48:00,
2013-02-25 14:53:00,37.1,18.8,29.73,North,-999,9.0,16.0,47,0.00,,,0.00,480.00,VWS V14.01,2013-02-25 21:53:00,
2013-02-25 14:58:00,37.6,18.7,29.73,North,-999,10.0,16.0,46,0.00,,,0.00,534.00,VWS V14.01,2013-02-25 21:58:00,
2013-02-25 15:03:00,37.7,18.8,29.73,North,-999,12.0,18.0,46,0.00,,,0.00,545.00,VWS V14.01,2013-02-25 22:03:00,
2013-02-25 15:08:00,37.4,18.5,29.73,North,-999,13.0,18.0,46,0.00,,,0.00,413.00,VWS V14.01,2013-02-25 22:08:00,
2013-02-25 15:13:00,37.4,18.5,29.73,North,-999,10.0,18.0,46,0.00,,,0.00,353.00,VWS V14.01,2013-02-25 22:13:00,
2013-02-25 15:18:00,37.5,18.6,29.73,North,-999,7.0,18.0,46,0.00,,,0.00,343.00,VWS V14.01,2013-02-25 22:18:00,
2013-02-25 15:23:00,37.4,18.0,29.73,North,-999,11.0,17.0,45,0.00,,,0.00,234.00,VWS V14.01,2013-02-25 22:23:00,
2013-02-25 15:28:00,37.4,18.5,29.73,North,-999,8.0,17.0,46,0.00,,,0.00,197.00,VWS V14.01,2013-02-25 22:28:00,
2013-02-25 15:33:00,37.1,18.2,29.73,North,-999,9.0,14.0,46,0.00,,,0.00,163.00,VWS V14.01,2013-02-25 22:33:00,
2013-02-25 15:38:00,36.8,18.5,29.73,North,-999,4.0,15.0,47,0.00,,,0.00,144.00,VWS V14.01,2013-02-25 22:38:00,
2013-02-25 15:43:00,36.5,18.7,29.73,North,-999,6.0,12.0,48,0.00,,,0.00,132.00,VWS V14.01,2013-02-25 22:43:00,
2013-02-25 15:48:00,36.1,18.8,29.73,North,-999,4.0,13.0,49,0.00,,,0.00,109.00,VWS V14.01,2013-02-25 22:48:00,
2013-02-25 15:53:00,36.0,19.2,29.73,North,-999,4.0,14.0,50,0.00,,,0.00,95.00,VWS V14.01,2013-02-25 22:53:00,
2013-02-25 15:58:00,35.7,19.8,29.73,North,-999,3.0,14.0,52,0.00,,,0.00,88.00,VWS V14.01,2013-02-25 22:58:00,
2013-02-25 16:03:00,35.4,20.0,29.72,North,-999,2.0,9.0,53,0.00,,,0.00,84.00,VWS V14.01,2013-02-25 23:03:00,
2013-02-25 16:08:00,35.2,20.7,29.72,North,-999,4.0,9.0,55,0.00,,,0.00,79.00,VWS V14.01,2013-02-25 23:08:00,
2013-02-25 16:13:00,34.8,20.7,29.72,North,-999,2.0,9.0,56,0.00,,,0.00,74.00,VWS V14.01,2013-02-25 23:13:00,
2013-02-25 16:18:00,34.4,20.3,29.72,North,-999,3.0,10.0,56,0.00,,,0.00,69.00,VWS V14.01,2013-02-25 23:18:00,
2013-02-25 16:23:00,34.1,20.1,29.72,North,-999,9.0,11.0,56,0.00,,,0.00,63.00,VWS V14.01,2013-02-25 23:23:00,
2013-02-25 16:28:00,33.6,20.0,29.72,North,-999,5.0,11.0,57,0.00,,,0.00,56.00,VWS V14.01,2013-02-25 23:28:00,
2013-02-25 16:33:00,33.4,19.8,29.72,North,-999,3.0,9.0,57,0.00,,,0.00,49.00,VWS V14.01,2013-02-25 23:33:00,
2013-02-25 16:38:00,33.3,19.7,29.72,North,-999,3.0,9.0,57,0.00,,,0.00,42.00,VWS V14.01,2013-02-25 23:38:00,
2013-02-25 16:43:00,33.2,19.6,29.72,North,-999,2.0,6.0,57,0.00,,,0.00,40.00,VWS V14.01,2013-02-25 23:43:00,
2013-02-25 16:48:00,33.2,20.0,29.72,North,-999,4.0,6.0,58,0.00,,,0.00,39.00,VWS V14.01,2013-02-25 23:48:00,
2013-02-25 16:53:00,33.0,20.2,29.73,North,-999,4.0,7.0,59,0.00,,,0.00,35.00,VWS V14.01,2013-02-25 23:53:00,
2013-02-25 16:58:00,32.6,20.3,29.73,North,-999,0.0,7.0,60,0.00,,,0.00,32.00,VWS V14.01,2013-02-25 23:58:00,
2013-02-25 17:03:00,32.4,20.1,29.73,North,-999,2.0,4.0,60,0.00,,,0.00,28.00,VWS V14.01,2013-02-26 00:03:00,
2013-02-25 17:08:00,32.1,19.8,29.72,North,-999,0.0,4.0,60,0.00,,,0.00,23.00,VWS V14.01,2013-02-26 00:08:00,
2013-02-25 17:13:00,31.9,19.6,29.72,North,-999,3.0,5.0,60,0.00,,,0.00,19.00,VWS V14.01,2013-02-26 00:13:00,
2013-02-25 17:18:00,31.6,19.3,29.72,North,-999,4.0,5.0,60,0.00,,,0.00,14.00,VWS V14.01,2013-02-26 00:18:00,
2013-02-25 17:23:00,31.5,19.6,29.72,North,-999,2.0,6.0,61,0.00,,,0.00,12.00,VWS V14.01,2013-02-26 00:23:00,
2013-02-25 17:28:00,31.3,19.4,29.72,North,-999,0.0,6.0,61,0.00,,,0.00,9.00,VWS V14.01,2013-02-26 00:28:00,
2013-02-25 17:33:00,31.2,19.3,29.72,North,-999,2.0,5.0,61,0.00,,,0.00,7.00,VWS V14.01,2013-02-26 00:33:00,
2013-02-25 17:38:00,31.1,19.2,29.72,North,-999,0.0,5.0,61,0.00,,,0.00,5.00,VWS V14.01,2013-02-26 00:38:00,
2013-02-25 17:42:00,30.8,19.0,29.72,North,-999,3.0,7.0,61,0.00,,,0.00,0.00,VWS V14.01,2013-02-26 00:42:00,
2013-02-25 17:47:00,30.6,18.8,29.72,North,-999,3.0,7.0,61,0.00,,,0.00,0.00,VWS V14.01,2013-02-26 00:47:00,
2013-02-25 17:52:00,30.4,18.6,29.72,North,-999,3.0,6.0,61,0.00,,,0.00,0.00,VWS V14.01,2013-02-26 00:52:00,
2013-02-25 17:57:00,30.3,18.5,29.72,North,-999,2.0,6.0,61,0.00,,,0.00,0.00,VWS V14.01,2013-02-26 00:57:00,
2013-02-25 18:02:00,30.2,18.4,29.72,North,-999,3.0,5.0,61,0.00,,,0.00,0.00,VWS V14.01,2013-02-26 01:02:00,
2013-02-25 18:07:00,30.1,18.7,29.72,North,-999,0.0,5.0,62,0.00,,,0.00,0.00,VWS V14.01,2013-02-26 01:07:00,
2013-02-25 18:12:00,30.1,18.7,29.72,North,-999,0.0,0.0,62,0.00,,,0.00,0.00,VWS V14.01,2013-02-26 01:12:00,
2013-02-25 18:17:00,30.1,18.7,29.72,North,-999,0.0,0.0,62,0.00,,,0.00,0.00,VWS V14.01,2013-02-26 01:17:00,
2013-02-25 18:22:00,30.0,18.6,29.72,North,-999,2.0,4.0,62,0.00,,,0.00,0.00,VWS V14.01,2013-02-26 01:22:00,
2013-02-25 18:27:00,29.9,18.5,29.72,North,-999,0.0,4.0,62,0.00,,,0.00,0.00,VWS V14.01,2013-02-26 01:27:00,
2013-02-25 18:32:00,29.8,18.8,29.72,North,-999,0.0,2.0,63,0.00,,,0.00,0.00,VWS V14.01,2013-02-26 01:32:00,
2013-02-25 18:37:00,29.7,18.7,29.72,North,-999,3.0,3.0,63,0.00,,,0.00,0.00,VWS V14.01,2013-02-26 01:37:00,
2013-02-25 18:42:00,29.6,18.9,29.72,North,-999,0.0,4.0,64,0.00,,,0.00,0.00,VWS V14.01,2013-02-26 01:42:00,
2013-02-25 18:47:00,29.5,18.8,29.72,North,-999,0.0,4.0,64,0.00,,,0.00,0.00,VWS V14.01,2013-02-26 01:47:00,
2013-02-25 18:52:00,29.5,18.8,29.72,North,-999,0.0,0.0,64,0.00,,,0.00,0.00,VWS V14.01,2013-02-26 01:52:00,
2013-02-25 18:57:00,29.5,18.8,29.72,North,-999,0.0,0.0,64,0.00,,,0.00,0.00,VWS V14.01,2013-02-26 01:57:00,
2013-02-25 19:02:00,29.5,18.8,29.72,North,-999,0.0,0.0,64,0.00,,,0.00,0.00,VWS V14.01,2013-02-26 02:02:00,
2013-02-25 19:07:00,29.5,18.8,29.72,North,-999,0.0,0.0,64,0.00,,,0.00,0.00,VWS V14.01,2013-02-26 02:07:00,
2013-02-25 19:12:00,29.5,18.8,29.72,North,-999,0.0,0.0,64,0.00,,,0.00,0.00,VWS V14.01,2013-02-26 02:12:00,
2013-02-25 19:17:00,29.5,18.8,29.73,North,-999,0.0,2.0,64,0.00,,,0.00,0.00,VWS V14.01,2013-02-26 02:17:00,
2013-02-25 19:22:00,29.5,18.8,29.73,North,-999,0.0,0.0,64,0.00,,,0.00,0.00,VWS V14.01,2013-02-26 02:22:00,
2013-02-25 19:27:00,29.5,18.5,29.73,North,-999,0.0,0.0,63,0.00,,,0.00,0.00,VWS V14.01,2013-02-26 02:27:00,
2013-02-25 19:32:00,29.5,18.5,29.73,North,-999,0.0,0.0,63,0.00,,,0.00,0.00,VWS V14.01,2013-02-26 02:32:00,
2013-02-25 19:37:00,29.5,18.5,29.73,North,-999,0.0,0.0,63,0.00,,,0.00,0.00,VWS V14.01,2013-02-26 02:37:00,
2013-02-25 19:42:00,29.5,18.5,29.73,North,-999,0.0,0.0,63,0.00,,,0.00,0.00,VWS V14.01,2013-02-26 02:42:00,
2013-02-25 19:47:00,29.4,18.4,29.73,North,-999,0.0,0.0,63,0.00,,,0.00,0.00,VWS V14.01,2013-02-26 02:47:00,
2013-02-25 19:52:00,29.2,18.5,29.74,North,-999,0.0,0.0,64,0.00,,,0.00,0.00,VWS V14.01,2013-02-26 02:52:00,
2013-02-25 19:57:00,29.1,18.8,29.74,North,-999,0.0,0.0,65,0.00,,,0.00,0.00,VWS V14.01,2013-02-26 02:57:00,
2013-02-25 20:02:00,29.1,18.8,29.74,North,-999,0.0,0.0,65,0.00,,,0.00,0.00,VWS V14.01,2013-02-26 03:02:00,
2013-02-25 20:07:00,29.0,18.4,29.74,North,-999,0.0,0.0,64,0.00,,,0.00,0.00,VWS V14.01,2013-02-26 03:07:00,
2013-02-25 20:12:00,29.0,18.4,29.74,North,-999,0.0,0.0,64,0.00,,,0.00,0.00,VWS V14.01,2013-02-26 03:12:00,
2013-02-25 20:17:00,28.9,18.3,29.74,North,-999,0.0,0.0,64,0.00,,,0.00,0.00,VWS V14.01,2013-02-26 03:17:00,
2013-02-25 20:22:00,29.0,18.4,29.74,North,-999,2.0,4.0,64,0.00,,,0.00,0.00,VWS V14.01,2013-02-26 03:22:00,
2013-02-25 20:27:00,28.9,18.3,29.74,North,-999,0.0,4.0,64,0.00,,,0.00,0.00,VWS V14.01,2013-02-26 03:27:00,
2013-02-25 20:32:00,28.9,18.3,29.74,North,-999,0.0,0.0,64,0.00,,,0.00,0.00,VWS V14.01,2013-02-26 03:32:00,
2013-02-25 20:37:00,28.8,18.2,29.74,North,-999,0.0,0.0,64,0.00,,,0.00,0.00,VWS V14.01,2013-02-26 03:37:00,
2013-02-25 20:42:00,28.9,18.6,29.74,North,-999,0.0,0.0,65,0.00,,,0.00,0.00,VWS V14.01,2013-02-26 03:42:00,
2013-02-25 20:47:00,28.9,18.3,29.74,North,-999,0.0,0.0,64,0.00,,,0.00,0.00,VWS V14.01,2013-02-26 03:47:00,
2013-02-25 20:52:00,28.9,18.6,29.75,North,-999,0.0,0.0,65,0.00,,,0.00,0.00,VWS V14.01,2013-02-26 03:52:00,
2013-02-25 20:57:00,28.9,18.6,29.75,North,-999,0.0,0.0,65,0.00,,,0.00,0.00,VWS V14.01,2013-02-26 03:57:00,
2013-02-25 21:02:00,28.9,18.6,29.75,North,-999,0.0,0.0,65,0.00,,,0.00,0.00,VWS V14.01,2013-02-26 04:02:00,
2013-02-25 21:07:00,28.9,18.6,29.75,North,-999,0.0,0.0,65,0.00,,,0.00,0.00,VWS V14.01,2013-02-26 04:07:00,
2013-02-25 21:12:00,28.9,18.6,29.75,North,-999,0.0,0.0,65,0.00,,,0.00,0.00,VWS V14.01,2013-02-26 04:12:00,
2013-02-25 21:17:00,29.0,18.7,29.75,North,-999,0.0,3.0,65,0.00,,,0.00,0.00,VWS V14.01,2013-02-26 04:17:00,
2013-02-25 21:22:00,29.0,18.4,29.75,North,-999,0.0,0.0,64,0.00,,,0.00,0.00,VWS V14.01,2013-02-26 04:22:00,
2013-02-25 21:27:00,29.1,18.8,29.75,North,-999,0.0,0.0,65,0.00,,,0.00,0.00,VWS V14.01,2013-02-26 04:27:00,
2013-02-25 21:32:00,29.1,18.8,29.75,North,-999,0.0,0.0,65,0.00,,,0.00,0.00,VWS V14.01,2013-02-26 04:32:00,
2013-02-25 21:37:00,29.1,18.5,29.75,North,-999,0.0,0.0,64,0.00,,,0.00,0.00,VWS V14.01,2013-02-26 04:37:00,
2013-02-25 21:42:00,29.2,18.5,29.75,North,-999,2.0,4.0,64,0.00,,,0.00,0.00,VWS V14.01,2013-02-26 04:42:00,
2013-02-25 21:47:00,29.3,18.6,29.75,North,-999,0.0,4.0,64,0.00,,,0.00,0.00,VWS V14.01,2013-02-26 04:47:00,
2013-02-25 21:52:00,29.4,18.7,29.75,North,-999,0.0,0.0,64,0.00,,,0.00,0.00,VWS V14.01,2013-02-26 04:52:00,
2013-02-25 21:57:00,29.4,18.7,29.76,North,-999,0.0,0.0,64,0.00,,,0.00,0.00,VWS V14.01,2013-02-26 04:57:00,
2013-02-25 22:00:00,29.4,18.4,29.76,North,-999,0.0,0.0,63,0.00,,,0.00,0.00,VWS V14.01,2013-02-26 05:00:00,
2013-02-25 22:05:00,29.4,18.4,29.76,North,-999,0.0,0.0,63,0.00,,,0.00,0.00,VWS V14.01,2013-02-26 05:05:00,
2013-02-25 22:10:00,29.3,18.3,29.77,North,-999,0.0,0.0,63,0.00,,,0.00,0.00,VWS V14.01,2013-02-26 05:10:00,
2013-02-25 22:15:00,29.2,18.2,29.77,North,-999,0.0,0.0,63,0.00,,,0.00,0.00,VWS V14.01,2013-02-26 05:15:00,
2013-02-25 22:20:00,29.3,18.3,29.77,North,-999,0.0,0.0,63,0.00,,,0.00,0.00,VWS V14.01,2013-02-26 05:20:00,
2013-02-25 22:25:00,29.4,18.4,29.77,North,-999,0.0,0.0,63,0.00,,,0.00,0.00,VWS V14.01,2013-02-26 05:25:00,
2013-02-25 22:30:00,29.5,18.5,29.77,North,-999,0.0,0.0,63,0.00,,,0.00,0.00,VWS V14.01,2013-02-26 05:30:00,
2013-02-25 22:35:00,29.7,18.3,29.77,North,-999,0.0,0.0,62,0.00,,,0.00,0.00,VWS V14.01,2013-02-26 05:35:00,
2013-02-25 22:40:00,29.7,18.7,29.77,North,-999,0.0,0.0,63,0.00,,,0.00,0.00,VWS V14.01,2013-02-26 05:40:00,
2013-02-25 22:45:00,29.7,18.7,29.77,North,-999,0.0,0.0,63,0.00,,,0.00,0.00,VWS V14.01,2013-02-26 05:45:00,
2013-02-25 22:50:00,29.7,18.7,29.77,North,-999,0.0,0.0,63,0.00,,,0.00,0.00,VWS V14.01,2013-02-26 05:50:00,
2013-02-25 22:55:00,29.7,18.7,29.78,North,-999,0.0,0.0,63,0.00,,,0.00,0.00,VWS V14.01,2013-02-26 05:55:00,
2013-02-25 23:00:00,29.6,18.6,29.77,North,-999,0.0,0.0,63,0.00,,,0.00,0.00,VWS V14.01,2013-02-26 06:00:00,
2013-02-25 23:05:00,29.4,18.4,29.77,North,-999,0.0,0.0,63,0.00,,,0.00,0.00,VWS V14.01,2013-02-26 06:05:00,
2013-02-25 23:10:00,29.2,17.4,29.77,North,-999,0.0,0.0,61,0.00,,,0.00,0.00,VWS V14.01,2013-02-26 06:10:00,
2013-02-25 23:15:00,29.0,18.0,29.77,North,-999,0.0,0.0,63,0.00,,,0.00,0.00,VWS V14.01,2013-02-26 06:15:00,
2013-02-25 23:20:00,28.9,17.2,29.77,North,-999,0.0,0.0,61,0.00,,,0.00,0.00,VWS V14.01,2013-02-26 06:20:00,
2013-02-25 23:25:00,28.8,17.8,29.78,North,-999,0.0,0.0,63,0.00,,,0.00,0.00,VWS V14.01,2013-02-26 06:25:00,
2013-02-25 23:29:00,28.7,17.7,29.78,North,-999,0.0,0.0,63,0.00,,,0.00,0.00,VWS V14.01,2013-02-26 06:29:00,
2013-02-25 23:34:00,28.8,17.8,29.78,North,-999,0.0,0.0,63,0.00,,,0.00,0.00,VWS V14.01,2013-02-26 06:34:00,
2013-02-25 23:39:00,28.7,17.3,29.78,North,-999,5.0,6.0,62,0.00,,,0.00,0.00,VWS V14.01,2013-02-26 06:39:00,
2013-02-25 23:44:00,28.7,17.7,29.78,North,-999,6.0,7.0,63,0.00,,,0.00,0.00,VWS V14.01,2013-02-26 06:44:00,
2013-02-25 23:49:00,28.7,18.1,29.78,North,-999,5.0,5.0,64,0.00,,,0.00,0.00,VWS V14.01,2013-02-26 06:49:00,
2013-02-25 23:54:00,28.7,17.7,29.78,North,-999,3.0,6.0,63,0.00,,,0.00,0.00,VWS V14.01,2013-02-26 06:54:00,
2013-02-25 23:59:00,28.7,18.1,29.78,North,-999,0.0,0.0,64,0.00,,,0.00,0.00,VWS V14.01,2013-02-26 06:59:00,